Time;durP1;ratioP1;P1;durP2;ratioP2;P2;SDS_P1;SDS_P2;PMS_P1;PMS_P2;Temp;Humidity;BMP_temperature;BMP_pressure;BME280_temperature;BME280_humidity;BME280_pressure;Samples;Min_cycle;Max_cycle;Signal;HPM_P1;HPM_P2
2023/05/29 00:01:46;;;;;;;5.18;2.10;;;;;;;18.72;26.26;101648.56;5058287;28;20044;-69
2023/05/29 00:04:14;;;;;;;5.30;1.95;;;;;;;18.67;26.61;101641.78;5049625;28;20045;-69
2023/05/29 00:06:42;;;;;;;3.85;2.05;;;;;;;18.63;26.41;101641.28;5053087;28;20079;-67
2023/05/29 00:09:10;;;;;;;3.72;2.08;;;;;;;18.59;26.40;101645.41;5049787;28;20047;-69
2023/05/29 00:11:38;;;;;;;4.05;2.00;;;;;;;18.54;26.08;101639.50;5059928;28;20052;-69
2023/05/29 00:14:06;;;;;;;4.45;2.10;;;;;;;18.50;26.28;101643.63;5059881;28;20037;-69
2023/05/29 00:16:37;;;;;;;3.55;2.00;;;;;;;18.47;26.37;101650.34;5035463;28;20053;-69
2023/05/29 00:19:05;;;;;;;2.72;1.58;;;;;;;18.41;26.76;101644.59;5057396;28;20029;-69
2023/05/29 00:21:33;;;;;;;3.83;1.90;;;;;;;18.37;26.92;101640.44;5059621;28;20537;-69
2023/05/29 00:24:01;;;;;;;4.50;2.28;;;;;;;18.30;26.56;101642.16;5059559;28;20062;-68
2023/05/29 00:26:29;;;;;;;3.60;2.00;;;;;;;18.25;26.66;101639.00;5052052;28;20072;-69
2023/05/29 00:28:58;;;;;;;4.57;2.20;;;;;;;18.19;26.42;101637.75;5034169;28;20045;-68
2023/05/29 00:31:26;;;;;;;4.63;2.00;;;;;;;18.14;27.14;101642.94;5060628;28;20715;-68
2023/05/29 00:33:55;;;;;;;3.90;2.20;;;;;;;18.13;26.86;101646.75;5064079;28;20044;-68
2023/05/29 00:36:25;;;;;;;3.63;1.90;;;;;;;18.06;27.10;101652.03;5053966;28;20119;-69
2023/05/29 00:38:52;;;;;;;3.65;2.20;;;;;;;18.01;27.20;101654.44;5032362;28;20045;-69
2023/05/29 00:41:20;;;;;;;3.83;1.92;;;;;;;17.99;26.88;101650.09;5035641;28;20068;-68
2023/05/29 00:43:48;;;;;;;4.10;2.08;;;;;;;17.95;27.49;101655.13;5033049;28;20072;-66
2023/05/29 00:46:17;;;;;;;3.97;2.10;;;;;;;17.93;27.04;101659.94;5033285;28;20076;-66
2023/05/29 00:48:45;;;;;;;3.85;2.10;;;;;;;17.91;27.61;101658.34;5053137;28;20052;-67
2023/05/29 00:51:15;;;;;;;3.40;2.13;;;;;;;17.91;27.16;101663.91;5055126;28;20525;-69
2023/05/29 00:53:45;;;;;;;4.70;2.28;;;;;;;17.87;27.48;101655.06;5061503;28;20170;-67
2023/05/29 00:56:13;;;;;;;3.88;2.20;;;;;;;17.84;27.73;101660.91;5051152;28;20068;-68
2023/05/29 00:58:43;;;;;;;4.05;2.03;;;;;;;17.82;27.29;101665.75;5056883;28;20036;-67
2023/05/29 01:01:11;;;;;;;3.22;1.92;;;;;;;17.79;27.44;101671.63;5053644;28;20124;-68
2023/05/29 01:03:41;;;;;;;3.15;1.95;;;;;;;17.77;27.51;101676.44;5026274;28;20038;-68
2023/05/29 01:06:10;;;;;;;3.65;2.00;;;;;;;17.75;27.83;101684.03;5055080;28;20074;-68
2023/05/29 01:08:39;;;;;;;3.88;2.00;;;;;;;17.74;27.47;101682.28;5059001;28;20041;-67
2023/05/29 01:11:19;;;;;;;5.78;2.45;;;;;;;17.72;28.02;101682.44;5047629;28;20048;-69
2023/05/29 01:13:47;;;;;;;3.10;1.98;;;;;;;17.65;28.25;101692.41;5034647;28;20516;-69
2023/05/29 01:16:26;;;;;;;4.40;2.30;;;;;;;17.67;28.30;101684.81;5046203;28;20068;-70
2023/05/29 01:19:01;;;;;;;3.78;2.10;;;;;;;17.62;27.83;101684.44;5052389;28;20066;-67
2023/05/29 01:21:45;;;;;;;5.07;2.50;;;;;;;17.60;28.75;101680.94;5033919;28;20059;-69
2023/05/29 01:24:27;;;;;;;4.05;1.80;;;;;;;17.57;28.12;101688.69;5048330;28;20041;-68
2023/05/29 01:27:01;;;;;;;5.35;2.00;;;;;;;17.53;28.61;101682.63;5032036;28;20073;-70
2023/05/29 01:29:31;;;;;;;3.50;1.92;;;;;;;17.49;28.10;101692.25;5032464;28;20132;-69
2023/05/29 01:32:01;;;;;;;3.85;2.22;;;;;;;17.46;28.02;101687.06;5053318;28;20049;-68
2023/05/29 01:34:29;;;;;;;3.20;1.90;;;;;;;17.42;28.17;101687.53;5037734;28;20057;-69
2023/05/29 01:36:57;;;;;;;2.85;1.80;;;;;;;17.38;28.42;101693.41;5051549;28;21205;-69
2023/05/29 01:39:26;;;;;;;4.95;2.00;;;;;;;17.34;28.43;101694.72;5046529;28;20045;-68
2023/05/29 01:41:57;;;;;;;4.10;1.90;;;;;;;17.33;28.98;101705.94;5030922;28;20451;-69
2023/05/29 01:44:26;;;;;;;4.15;2.03;;;;;;;17.29;29.01;101705.41;5031322;28;20041;-68
2023/05/29 01:46:55;;;;;;;4.00;2.05;;;;;;;17.25;29.02;101706.75;5056653;28;20348;-67
2023/05/29 01:49:25;;;;;;;5.20;2.22;;;;;;;17.25;29.05;101714.16;5039761;28;20048;-69
2023/05/29 01:51:52;;;;;;;3.47;1.70;;;;;;;17.20;28.75;101722.94;5061990;28;20068;-68
2023/05/29 01:54:21;;;;;;;5.53;1.98;;;;;;;17.19;28.89;101718.44;5038853;28;20067;-69
2023/05/29 01:56:51;;;;;;;3.80;2.20;;;;;;;17.16;29.50;101729.81;5054352;28;20052;-69
2023/05/29 01:59:22;;;;;;;4.20;2.10;;;;;;;17.15;29.53;101730.88;5035513;28;20045;-68
2023/05/29 02:01:50;;;;;;;3.30;2.00;;;;;;;17.09;29.54;101725.94;5032250;28;20466;-68
2023/05/29 02:04:18;;;;;;;3.28;1.90;;;;;;;17.06;29.35;101742.84;5044306;28;20504;-68
2023/05/29 02:06:46;;;;;;;3.97;2.00;;;;;;;17.00;29.20;101727.72;5054747;28;20140;-69
2023/05/29 02:09:14;;;;;;;4.68;1.90;;;;;;;16.98;29.36;101737.22;5052754;28;20060;-69
2023/05/29 02:11:45;;;;;;;3.83;2.03;;;;;;;16.93;29.77;101737.66;5047071;28;20535;-70
2023/05/29 02:14:13;;;;;;;4.35;1.80;;;;;;;16.89;29.62;101727.06;5049389;28;20071;-67
2023/05/29 02:16:43;;;;;;;4.45;1.70;;;;;;;16.86;29.68;101731.00;5047801;28;20411;-69
2023/05/29 02:19:12;;;;;;;6.35;1.95;;;;;;;16.79;30.02;101731.78;5044116;28;20098;-70
2023/05/29 02:21:40;;;;;;;6.45;2.25;;;;;;;16.76;29.74;101726.53;5035877;28;20057;-70
2023/05/29 02:24:08;;;;;;;3.42;1.83;;;;;;;16.67;29.76;101728.34;5030297;28;20068;-68
2023/05/29 02:26:37;;;;;;;3.70;1.80;;;;;;;16.64;29.57;101737.81;5031655;28;20059;-67
2023/05/29 02:29:06;;;;;;;4.07;1.88;;;;;;;16.57;29.86;101733.06;5030500;28;20190;-70
2023/05/29 02:31:34;;;;;;;5.60;1.98;;;;;;;16.51;30.04;101748.34;5043903;28;20045;-69
2023/05/29 02:34:06;;;;;;;3.80;1.90;;;;;;;16.46;29.84;101747.94;5034846;28;20189;-68
2023/05/29 02:36:37;;;;;;;5.50;1.92;;;;;;;16.38;29.61;101741.41;5047236;28;20572;-69
2023/05/29 02:39:05;;;;;;;5.00;2.28;;;;;;;16.33;30.01;101746.53;5042569;28;20136;-67
2023/05/29 02:41:33;;;;;;;4.13;1.85;;;;;;;16.29;30.13;101754.25;5023615;28;20129;-69
2023/05/29 02:44:01;;;;;;;5.20;2.17;;;;;;;16.23;30.11;101758.47;5030556;28;20508;-68
2023/05/29 02:46:29;;;;;;;4.85;1.85;;;;;;;16.19;30.23;101758.91;5033681;28;20107;-69
2023/05/29 02:48:57;;;;;;;5.22;1.80;;;;;;;16.15;29.92;101761.09;5058401;28;20101;-69
2023/05/29 02:51:27;;;;;;;5.88;2.10;;;;;;;16.11;30.25;101748.59;5037733;28;20579;-68
2023/05/29 02:53:55;;;;;;;5.53;2.00;;;;;;;16.06;30.14;101761.97;5060295;28;20479;-69
2023/05/29 02:56:24;;;;;;;5.55;1.95;;;;;;;16.01;30.37;101755.13;5032823;28;20056;-69
2023/05/29 02:58:52;;;;;;;5.03;1.90;;;;;;;15.98;30.44;101764.59;5031026;28;20087;-69
2023/05/29 03:01:20;;;;;;;7.25;2.08;;;;;;;15.94;30.37;101759.50;5052454;28;20064;-68
2023/05/29 03:03:49;;;;;;;4.53;1.77;;;;;;;15.91;30.34;101762.59;5035832;28;20500;-69
2023/05/29 03:06:17;;;;;;;4.13;1.67;;;;;;;15.88;30.20;101758.22;5033626;28;20045;-67
2023/05/29 03:08:48;;;;;;;4.93;2.22;;;;;;;15.87;30.41;101754.59;5049849;28;20083;-68
2023/05/29 03:11:17;;;;;;;5.90;2.10;;;;;;;15.83;30.29;101755.91;5050068;28;20106;-69
2023/05/29 03:13:46;;;;;;;5.65;1.73;;;;;;;15.81;30.29;101757.94;5049211;28;20045;-68
2023/05/29 03:16:14;;;;;;;4.43;1.83;;;;;;;15.78;30.41;101763.75;5033568;28;20044;-69
2023/05/29 03:18:44;;;;;;;4.65;1.95;;;;;;;15.78;30.78;101760.97;5036471;28;20052;-69
2023/05/29 03:21:13;;;;;;;4.85;2.42;;;;;;;15.75;30.21;101750.25;5047320;28;20292;-69
2023/05/29 03:23:41;;;;;;;7.13;2.47;;;;;;;15.72;30.53;101761.56;5058745;28;20092;-69
2023/05/29 03:26:10;;;;;;;5.47;1.90;;;;;;;15.71;30.85;101759.84;5061515;28;20067;-68
2023/05/29 03:28:39;;;;;;;4.70;1.90;;;;;;;15.66;30.46;101758.53;5033293;28;20048;-69
2023/05/29 03:31:09;;;;;;;4.63;1.70;;;;;;;15.63;30.67;101762.44;5040001;28;20557;-69
2023/05/29 03:33:37;;;;;;;5.13;1.70;;;;;;;15.60;30.31;101757.22;5031969;28;20139;-70
2023/05/29 03:36:24;;;;;;;4.10;1.75;;;;;;;15.56;30.61;101760.41;5050731;28;20048;-69
2023/05/29 03:38:53;;;;;;;6.18;2.17;;;;;;;15.55;30.95;101755.91;5036710;28;20037;-69
2023/05/29 03:41:22;;;;;;;4.70;1.88;;;;;;;15.54;30.97;101756.94;5040379;28;20045;-69
2023/05/29 03:43:52;;;;;;;5.43;2.00;;;;;;;15.49;30.92;101754.63;5044118;28;20051;-69
2023/05/29 03:46:22;;;;;;;5.10;1.67;;;;;;;15.48;30.83;101763.91;5039371;28;20057;-68
2023/05/29 03:48:50;;;;;;;7.22;2.05;;;;;;;15.48;31.10;101761.16;5035530;28;20114;-69
2023/05/29 03:51:18;;;;;;;5.03;1.95;;;;;;;15.47;30.58;101770.44;5036495;28;20140;-68
2023/05/29 03:53:46;;;;;;;5.28;1.90;;;;;;;15.47;30.98;101768.56;5032692;28;20041;-68
2023/05/29 03:56:15;;;;;;;5.72;1.70;;;;;;;15.45;31.04;101764.19;5055554;22;20052;31
2023/05/29 03:58:44;;;;;;;5.32;2.03;;;;;;;15.47;31.09;101765.78;4997419;28;20120;-70
2023/05/29 04:01:13;;;;;;;5.82;2.17;;;;;;;15.47;31.09;101770.44;4983945;28;20143;-69
2023/05/29 04:03:42;;;;;;;4.15;1.75;;;;;;;15.46;31.23;101774.19;4988363;28;20127;-70
2023/05/29 04:06:11;;;;;;;5.93;1.90;;;;;;;15.45;31.09;101772.47;5018513;28;20095;-72
2023/05/29 04:08:39;;;;;;;5.57;2.15;;;;;;;15.43;30.80;101780.88;5006362;28;20053;-70
2023/05/29 04:11:09;;;;;;;5.50;1.70;;;;;;;15.41;30.87;101777.41;5003574;28;20461;-70
2023/05/29 04:13:37;;;;;;;5.28;2.10;;;;;;;15.41;31.27;101784.81;4985321;28;20145;-70
2023/05/29 04:16:08;;;;;;;6.88;1.80;;;;;;;15.42;31.01;101781.88;5006135;28;20085;-70
2023/05/29 04:18:36;;;;;;;6.30;1.90;;;;;;;15.39;31.12;101786.84;5007211;28;20049;-70
2023/05/29 04:21:04;;;;;;;5.90;1.73;;;;;;;15.36;30.82;101790.75;4999677;28;20136;-70
2023/05/29 04:23:32;;;;;;;7.18;2.00;;;;;;;15.36;30.89;101800.91;5005311;28;20046;-70
2023/05/29 04:26:01;;;;;;;4.25;1.67;;;;;;;15.35;31.35;101801.91;4987314;28;20049;-70
2023/05/29 04:28:31;;;;;;;6.10;2.03;;;;;;;15.33;30.99;101799.28;5003089;28;20058;-70
2023/05/29 04:31:00;;;;;;;4.78;1.85;;;;;;;15.32;31.08;101803.06;5002327;28;20052;-70
2023/05/29 04:33:30;;;;;;;6.88;1.92;;;;;;;15.33;30.99;101803.94;5003759;28;20053;-70
2023/05/29 04:36:00;;;;;;;7.00;2.03;;;;;;;15.29;31.47;101795.06;4990547;28;20583;-70
2023/05/29 04:38:28;;;;;;;7.25;2.47;;;;;;;15.27;31.51;101788.81;5003407;28;20073;-70
2023/05/29 04:40:58;;;;;;;5.22;1.67;;;;;;;15.25;31.56;101795.50;5003791;28;20124;-70
2023/05/29 04:43:28;;;;;;;5.28;1.90;;;;;;;15.24;31.50;101811.16;5008128;28;20575;-70
2023/05/29 04:46:04;;;;;;;7.38;1.98;;;;;;;15.19;31.64;101807.94;4984449;28;20042;-70
2023/05/29 04:48:40;;;;;;;6.47;2.10;;;;;;;15.20;31.72;101806.06;5002166;28;20073;-70
2023/05/29 04:51:10;;;;;;;6.70;2.00;;;;;;;15.13;31.40;101806.63;4998086;28;20084;-70
2023/05/29 04:53:39;;;;;;;7.55;2.00;;;;;;;15.13;31.35;101805.75;5003347;28;20052;-70
2023/05/29 04:56:09;;;;;;;5.65;2.00;;;;;;;15.12;31.86;101806.78;4996265;28;20100;-70
2023/05/29 04:58:37;;;;;;;6.80;1.80;;;;;;;15.10;31.92;101806.91;4999945;28;20046;-70
2023/05/29 05:01:07;;;;;;;4.63;1.48;;;;;;;15.09;31.70;101810.69;5004166;28;20042;-70
2023/05/29 05:03:39;;;;;;;4.78;1.67;;;;;;;15.10;31.83;101822.56;5001402;28;20165;-70
2023/05/29 05:06:07;;;;;;;5.45;1.73;;;;;;;15.12;32.17;101815.03;5002753;28;20061;-70
2023/05/29 05:08:36;;;;;;;6.22;2.00;;;;;;;15.18;31.94;101821.91;5001428;28;20045;-70
2023/05/29 05:11:06;;;;;;;6.07;2.30;;;;;;;15.24;32.36;101826.84;5017971;28;20058;-70
2023/05/29 05:13:34;;;;;;;4.68;1.73;;;;;;;15.30;31.95;101832.66;4986144;28;20100;-70
2023/05/29 05:16:02;;;;;;;8.27;1.98;;;;;;;15.38;31.94;101832.84;5003949;28;20133;-70
2023/05/29 05:18:31;;;;;;;6.05;1.70;;;;;;;15.49;32.08;101835.50;5004446;28;20149;-70
2023/05/29 05:21:05;;;;;;;4.57;2.30;;;;;;;15.59;32.03;101840.16;4983289;28;20184;-70
2023/05/29 05:23:35;;;;;;;5.90;1.80;;;;;;;15.68;32.29;101831.00;4984993;28;20543;-70
2023/05/29 05:26:20;;;;;;;6.72;2.15;;;;;;;15.82;31.53;101839.75;4998998;28;20299;-70
2023/05/29 05:28:48;;;;;;;5.25;1.75;;;;;;;15.93;31.58;101838.69;5003371;28;20042;-70
2023/05/29 05:31:17;;;;;;;4.65;1.65;;;;;;;16.03;31.78;101841.47;5000821;28;20137;-70
2023/05/29 05:33:45;;;;;;;7.35;1.98;;;;;;;16.13;31.86;101847.84;5004999;28;20041;-70
2023/05/29 05:36:15;;;;;;;6.10;1.83;;;;;;;16.25;31.79;101846.69;5006283;28;21677;-70
2023/05/29 05:38:43;;;;;;;6.50;1.92;;;;;;;16.32;31.23;101853.41;4987119;28;20045;-70
2023/05/29 05:41:11;;;;;;;4.95;1.95;;;;;;;16.40;31.24;101847.13;5001827;28;20054;-70
2023/05/29 05:43:41;;;;;;;4.20;1.67;;;;;;;16.48;31.53;101844.50;4987272;28;20136;-70
2023/05/29 05:46:31;;;;;;;6.43;1.98;;;;;;;16.55;31.21;101840.97;4999109;28;20074;-70
2023/05/29 05:49:00;;;;;;;6.22;2.22;;;;;;;16.63;31.01;101846.63;5007145;28;20046;-70
2023/05/29 05:51:30;;;;;;;6.90;2.08;;;;;;;16.72;31.20;101841.22;4998754;28;20049;-70
2023/05/29 05:53:58;;;;;;;5.78;1.98;;;;;;;16.76;30.96;101829.69;5005001;28;20054;-70
2023/05/29 05:56:27;;;;;;;6.03;1.80;;;;;;;16.80;30.57;101833.91;4995260;28;20053;-70
2023/05/29 05:58:56;;;;;;;7.97;2.47;;;;;;;16.85;30.65;101836.22;5002634;28;20501;-70
2023/05/29 06:01:24;;;;;;;5.65;1.80;;;;;;;16.88;30.66;101838.69;5003809;28;20069;-70
2023/05/29 06:03:52;;;;;;;5.47;2.08;;;;;;;16.88;30.85;101834.03;5003687;28;20517;-70
2023/05/29 06:06:20;;;;;;;5.15;1.85;;;;;;;16.91;30.95;101839.22;4986577;28;20092;-70
2023/05/29 06:08:50;;;;;;;5.55;2.17;;;;;;;16.95;30.61;101843.44;5002000;28;20825;-70
2023/05/29 06:11:18;;;;;;;5.40;1.85;;;;;;;16.95;30.45;101848.97;4987397;28;20558;-70
2023/05/29 06:13:48;;;;;;;5.10;1.95;;;;;;;16.99;30.72;101852.31;4998066;28;20046;-70
2023/05/29 06:16:22;;;;;;;7.32;2.30;;;;;;;17.00;30.82;101843.88;5018716;28;20042;-70
2023/05/29 06:18:50;;;;;;;4.07;1.80;;;;;;;17.07;30.33;101854.34;5000893;28;20128;-71
2023/05/29 06:21:19;;;;;;;5.25;2.00;;;;;;;17.11;30.38;101864.06;4983646;28;20061;-71
2023/05/29 06:23:53;;;;;;;7.88;2.00;;;;;;;17.16;30.54;101862.59;5004291;28;20049;-65
2023/05/29 06:26:21;;;;;;;5.78;2.15;;;;;;;17.17;30.51;101847.72;4990986;28;20064;-64
2023/05/29 06:28:50;;;;;;;6.07;1.92;;;;;;;17.20;30.91;101852.97;4998676;28;20093;-65
2023/05/29 06:31:19;;;;;;;8.95;2.40;;;;;;;17.25;30.73;101849.72;5006599;28;20549;-64
2023/05/29 06:33:47;;;;;;;4.18;1.77;;;;;;;17.28;30.44;101854.97;4985654;28;20049;-65
2023/05/29 06:36:15;;;;;;;4.97;2.00;;;;;;;17.31;30.65;101847.25;5004431;28;20061;-68
2023/05/29 06:38:47;;;;;;;6.00;1.80;;;;;;;17.35;30.01;101856.97;5001498;28;20041;-65
2023/05/29 06:41:16;;;;;;;4.35;2.28;;;;;;;17.37;30.54;101863.22;4998482;28;20416;-66
2023/05/29 06:43:45;;;;;;;4.63;1.80;;;;;;;17.39;30.29;101861.16;5001614;28;20042;-65
2023/05/29 06:46:14;;;;;;;6.80;2.00;;;;;;;17.44;30.88;101868.13;5000204;28;20417;-65
2023/05/29 06:48:42;;;;;;;7.43;2.22;;;;;;;17.45;30.39;101861.56;4984932;28;20047;-64
2023/05/29 06:51:11;;;;;;;4.13;1.80;;;;;;;17.49;30.31;101862.97;4996488;28;20069;-65
2023/05/29 06:53:42;;;;;;;5.17;2.00;;;;;;;17.49;30.49;101861.09;4995504;28;20660;-66
2023/05/29 06:56:13;;;;;;;5.95;1.73;;;;;;;17.53;30.48;101858.88;4984299;28;20292;-66
2023/05/29 06:58:42;;;;;;;6.57;2.00;;;;;;;17.58;30.18;101860.16;4987571;28;20053;-67
2023/05/29 07:01:10;;;;;;;4.60;1.73;;;;;;;17.59;30.60;101863.78;5001976;28;20145;-66
2023/05/29 07:03:44;;;;;;;4.78;1.65;;;;;;;17.62;30.41;101866.25;5001335;28;20045;-66
2023/05/29 07:06:12;;;;;;;5.60;2.20;;;;;;;17.67;30.48;101861.13;5002672;28;20056;-66
2023/05/29 07:08:40;;;;;;;6.68;2.00;;;;;;;17.70;30.11;101860.81;5003988;28;20096;-66
2023/05/29 07:11:09;;;;;;;6.68;2.00;;;;;;;17.74;30.02;101848.41;5002770;28;20525;-66
2023/05/29 07:13:37;;;;;;;6.72;1.98;;;;;;;17.80;30.35;101863.53;5004519;28;20042;-66
2023/05/29 07:16:07;;;;;;;5.45;1.90;;;;;;;17.84;29.85;101854.75;5002250;28;20478;-66
2023/05/29 07:18:55;;;;;;;5.30;2.33;;;;;;;17.84;30.36;101851.97;4985392;28;20144;-66
2023/05/29 07:21:23;;;;;;;5.45;2.25;;;;;;;17.89;30.24;101852.41;4996380;28;20132;-65
2023/05/29 07:23:51;;;;;;;6.63;2.20;;;;;;;17.94;30.59;101851.91;4998957;28;20039;-66
2023/05/29 07:26:20;;;;;;;4.45;2.10;;;;;;;17.99;30.79;101858.69;5001090;28;20061;-66
2023/05/29 07:28:49;;;;;;;5.45;2.40;;;;;;;18.05;30.43;101855.31;5001524;28;20108;-66
2023/05/29 07:31:19;;;;;;;5.68;2.30;;;;;;;18.15;30.05;101863.53;4992996;28;20096;-67
2023/05/29 07:33:48;;;;;;;6.25;2.25;;;;;;;18.18;30.33;101860.44;5010024;28;20129;-66
2023/05/29 07:36:17;;;;;;;6.35;2.00;;;;;;;18.25;30.26;101869.84;5007726;28;20535;-66
2023/05/29 07:38:47;;;;;;;5.25;1.80;;;;;;;18.30;30.33;101880.47;5000441;28;20590;-67
2023/05/29 07:41:16;;;;;;;6.07;1.92;;;;;;;18.38;30.20;101877.75;5003375;28;20061;-68
2023/05/29 07:43:52;;;;;;;3.53;1.67;;;;;;;18.42;30.40;101882.81;5008436;28;20048;-67
2023/05/29 07:46:21;;;;;;;5.07;2.40;;;;;;;18.51;29.87;101890.19;4987982;28;20107;-65
2023/05/29 07:48:54;;;;;;;5.28;2.13;;;;;;;18.58;30.12;101890.41;5005323;28;20160;-66
2023/05/29 07:51:22;;;;;;;4.22;1.85;;;;;;;18.65;30.30;101885.94;4997199;28;20057;-67
2023/05/29 07:53:51;;;;;;;6.65;2.00;;;;;;;18.75;30.32;101894.16;5003757;28;20034;-66
2023/05/29 07:56:18;;;;;;;6.10;2.03;;;;;;;18.83;29.63;101891.44;5000168;28;20050;-65
2023/05/29 07:58:48;;;;;;;5.55;2.35;;;;;;;18.89;29.35;101893.56;5003578;28;20092;-66
2023/05/29 08:01:16;;;;;;;5.43;2.10;;;;;;;18.97;29.39;101901.94;5002130;28;20122;-66
2023/05/29 08:03:46;;;;;;;9.43;2.30;;;;;;;19.07;29.57;101894.38;4987528;28;20577;-67
2023/05/29 08:06:26;;;;;;;5.03;2.30;;;;;;;19.10;29.42;101896.81;5010550;28;20042;-65
2023/05/29 08:08:57;;;;;;;5.78;2.08;;;;;;;19.18;29.21;101899.63;5004840;28;20049;-70
2023/05/29 08:11:26;;;;;;;6.82;2.00;;;;;;;19.23;29.12;101900.03;5005375;28;20050;-64
2023/05/29 08:13:54;;;;;;;5.10;2.03;;;;;;;19.30;29.46;101911.34;5003056;28;20045;-67
2023/05/29 08:16:22;;;;;;;4.80;1.95;;;;;;;19.36;29.56;101902.38;4999366;28;20062;-63
2023/05/29 08:18:52;;;;;;;5.05;2.22;;;;;;;19.42;29.15;101904.47;5004828;28;20049;-63
2023/05/29 08:21:20;;;;;;;4.72;1.95;;;;;;;19.46;29.48;101911.41;5005333;28;20049;-62
2023/05/29 08:23:48;;;;;;;5.57;2.63;;;;;;;19.52;28.99;101912.66;5003951;28;20041;-64
2023/05/29 08:26:16;;;;;;;4.03;1.77;;;;;;;19.55;28.81;101912.31;5005322;28;20588;-64
2023/05/29 08:28:45;;;;;;;6.68;2.70;;;;;;;19.62;28.74;101905.91;5004487;28;20133;-64
2023/05/29 08:31:14;;;;;;;6.82;2.58;;;;;;;19.63;29.07;101909.56;5001946;28;20049;-66
2023/05/29 08:33:42;;;;;;;5.22;2.03;;;;;;;19.68;28.40;101904.38;5005947;28;20050;-61
2023/05/29 08:36:11;;;;;;;4.95;2.30;;;;;;;19.72;28.39;101916.88;5006373;28;20553;-64
2023/05/29 08:38:39;;;;;;;4.90;1.95;;;;;;;19.71;28.82;101908.75;5020634;28;20046;-65
2023/05/29 08:41:08;;;;;;;5.05;2.20;;;;;;;19.75;28.67;101901.78;5003417;28;20139;-67
2023/05/29 08:43:38;;;;;;;7.05;2.28;;;;;;;19.77;28.63;101902.50;4998270;28;20105;-65
2023/05/29 08:46:07;;;;;;;5.85;2.35;;;;;;;19.79;28.80;101903.22;5002569;28;20457;-67
2023/05/29 08:48:40;;;;;;;6.00;2.38;;;;;;;19.81;28.35;101907.53;4999916;28;20046;-62
2023/05/29 08:51:08;;;;;;;;;;;;;;;19.52;28.70;101910.75;5002830;28;20058;-62
2023/05/29 08:53:38;;;;;;;4.93;2.10;;;;;;;19.83;28.56;101910.16;5006288;28;19921;-65
2023/05/29 08:56:07;;;;;;;5.60;1.92;;;;;;;19.87;28.29;101912.41;4993960;28;20046;-65
2023/05/29 08:58:35;;;;;;;5.20;2.03;;;;;;;19.90;28.42;101908.44;5010085;28;20053;-61
2023/05/29 09:01:03;;;;;;;5.32;2.05;;;;;;;19.91;28.47;101915.75;5003041;28;20567;-61
2023/05/29 09:03:31;;;;;;;7.82;2.03;;;;;;;19.93;28.46;101906.22;5006111;28;20116;-61
2023/05/29 09:06:00;;;;;;;5.47;2.20;;;;;;;19.96;28.27;101911.41;5005312;28;20469;-60
2023/05/29 09:08:28;;;;;;;5.72;2.35;;;;;;;19.97;28.50;101907.59;5015488;28;20557;-56
2023/05/29 09:10:57;;;;;;;7.97;2.83;;;;;;;20.02;28.17;101904.31;5005321;28;20459;-59
2023/05/29 09:13:28;;;;;;;5.95;2.05;;;;;;;20.02;27.97;101901.56;5000199;28;20037;-61
2023/05/29 09:15:59;;;;;;;6.55;2.25;;;;;;;20.06;28.30;101908.47;5003047;28;20046;-61
2023/05/29 09:18:30;;;;;;;5.75;2.30;;;;;;;20.07;27.82;101909.34;5005078;28;20042;-60
2023/05/29 09:20:58;;;;;;;6.57;2.30;;;;;;;20.01;27.96;101910.91;4999305;28;20351;-60
2023/05/29 09:23:29;;;;;;;4.53;2.00;;;;;;;20.04;28.39;101913.34;5000408;28;20046;-60
2023/05/29 09:25:59;;;;;;;5.35;2.03;;;;;;;20.07;28.04;101904.66;5002418;28;20873;-60
2023/05/29 09:28:28;;;;;;;3.67;1.80;;;;;;;20.08;28.53;101909.19;5004064;28;20045;-59
2023/05/29 09:30:57;;;;;;;5.55;1.92;;;;;;;20.13;28.73;101912.31;5001423;28;20119;-59
2023/05/29 09:33:26;;;;;;;6.50;2.20;;;;;;;20.15;28.44;101914.94;5006709;28;20396;-65
2023/05/29 09:35:54;;;;;;;6.30;2.25;;;;;;;20.17;28.35;101904.50;5002297;28;20452;-65
2023/05/29 09:38:22;;;;;;;4.60;2.40;;;;;;;20.21;28.30;101912.31;5004547;28;20346;-64
2023/05/29 09:41:11;;;;;;;4.35;1.90;;;;;;;20.25;28.50;101910.94;5010640;28;20041;-65
2023/05/29 09:43:41;;;;;;;5.53;1.90;;;;;;;20.28;27.95;101915.31;5005344;28;20438;-65
2023/05/29 09:46:09;;;;;;;4.57;2.10;;;;;;;20.30;28.11;101921.53;5002110;28;20092;-63
2023/05/29 09:48:37;;;;;;;5.82;2.10;;;;;;;20.33;27.84;101921.22;5006803;28;20046;-63
2023/05/29 09:51:04;;;;;;;5.20;1.98;;;;;;;20.36;28.18;101924.53;5004601;28;20117;-60
2023/05/29 09:53:33;;;;;;;5.35;2.20;;;;;;;20.38;27.77;101918.75;5002572;28;20042;-61
2023/05/29 09:56:02;;;;;;;5.47;2.30;;;;;;;20.42;27.69;101928.50;4999953;28;20211;-58
2023/05/29 09:58:35;;;;;;;5.57;2.20;;;;;;;20.46;27.89;101917.88;5027652;23;20831;-84
2023/05/29 10:01:03;;;;;;;6.00;2.28;;;;;;;20.47;27.91;101925.19;5029757;28;20049;-81
2023/05/29 10:03:34;;;;;;;6.22;2.20;;;;;;;20.49;27.55;101932.34;5016948;28;20423;-82
2023/05/29 10:06:05;;;;;;;6.03;2.40;;;;;;;20.53;27.81;101932.88;5030369;28;20053;-82
2023/05/29 10:08:38;;;;;;;6.18;2.22;;;;;;;20.56;27.84;101916.69;5030370;28;20091;-83
2023/05/29 10:11:09;;;;;;;;;;;;;;;20.28;28.12;101923.66;5015280;28;20046;-81
2023/05/29 10:13:42;;;;;;;5.28;1.90;;;;;;;20.59;27.66;101916.38;5009579;28;19982;-83
2023/05/29 10:16:13;;;;;;;6.22;2.30;;;;;;;20.66;27.85;101920.19;5028940;28;20033;-83
2023/05/29 10:18:45;;;;;;;7.13;2.25;;;;;;;20.73;27.85;101923.13;5013104;28;20644;-80
2023/05/29 10:21:15;;;;;;;5.70;2.20;;;;;;;20.75;27.83;101921.06;5012260;28;20131;-80
2023/05/29 10:23:48;;;;;;;4.57;1.90;;;;;;;20.84;27.83;101908.88;5017103;28;20417;-80
2023/05/29 10:26:21;;;;;;;6.07;2.53;;;;;;;20.87;28.03;101915.97;5012682;28;20064;-80
2023/05/29 10:28:57;;;;;;;5.30;2.40;;;;;;;20.97;27.64;101917.53;5013028;28;20081;-80
2023/05/29 10:31:34;;;;;;;5.97;2.33;;;;;;;21.02;27.37;101917.88;5016873;28;20115;-80
2023/05/29 10:34:15;;;;;;;4.53;2.10;;;;;;;21.07;27.40;101920.13;5018454;28;20038;-80
2023/05/29 10:36:50;;;;;;;5.07;2.42;;;;;;;21.09;26.93;101923.59;5021341;28;20127;-80
2023/05/29 10:39:18;;;;;;;6.38;2.38;;;;;;;21.10;27.38;101914.22;5017090;28;20232;-80
2023/05/29 10:41:46;;;;;;;7.10;2.30;;;;;;;21.12;27.02;101918.53;5009461;28;20433;-79
2023/05/29 10:44:43;;;;;;;4.97;1.90;;;;;;;21.17;26.78;101909.66;5018267;28;20057;-80
2023/05/29 10:47:14;;;;;;;4.97;1.83;;;;;;;21.19;27.35;101901.13;5025438;28;20041;-80
2023/05/29 10:49:51;;;;;;;4.85;2.10;;;;;;;21.30;26.98;101903.53;5033437;28;20056;-80
2023/05/29 10:52:21;;;;;;;6.07;2.10;;;;;;;21.33;27.29;101914.34;5022272;28;20053;-81
2023/05/29 10:54:54;;;;;;;7.63;2.42;;;;;;;21.40;26.69;101915.34;5009477;28;20057;-83
2023/05/29 10:57:24;;;;;;;7.10;2.40;;;;;;;21.41;26.82;101908.72;5010534;28;20061;-82
2023/05/29 11:00:06;;;;;;;4.82;2.22;;;;;;;21.49;26.45;101901.22;5008487;28;20045;-81
2023/05/29 11:02:39;;;;;;;4.72;1.80;;;;;;;21.51;26.71;101901.03;5013071;28;20144;-81
2023/05/29 11:05:26;;;;;;;5.57;1.80;;;;;;;21.58;26.85;101893.69;5023985;28;20056;-84
2023/05/29 11:07:57;;;;;;;4.15;1.80;;;;;;;21.64;26.87;101886.50;5014077;28;20038;-82
2023/05/29 11:10:46;;;;;;;3.97;1.77;;;;;;;21.69;26.58;101901.63;5012957;28;20343;-82
2023/05/29 11:13:26;;;;;;;6.28;2.25;;;;;;;21.79;26.79;101898.59;5028144;28;20076;-82
2023/05/29 11:16:11;;;;;;;6.35;2.00;;;;;;;21.82;26.39;101892.69;5014762;28;20053;-81
2023/05/29 11:18:41;;;;;;;5.75;2.22;;;;;;;21.85;26.38;101889.50;5013304;28;20049;-81
2023/05/29 11:21:24;;;;;;;7.82;2.28;;;;;;;21.94;25.76;101884.78;5019726;28;20107;-81
2023/05/29 11:23:54;;;;;;;5.93;2.20;;;;;;;21.94;26.21;101885.66;5015511;28;20049;-81
2023/05/29 11:26:24;;;;;;;5.97;2.28;;;;;;;21.99;26.03;101880.41;5011879;28;20053;-80
2023/05/29 11:28:52;;;;;;;5.43;2.17;;;;;;;21.97;25.93;101885.28;5033548;28;20038;-79
2023/05/29 11:31:22;;;;;;;5.68;2.10;;;;;;;22.03;25.85;101887.31;5015177;28;20049;-80
2023/05/29 11:33:51;;;;;;;3.97;1.65;;;;;;;22.03;26.07;101881.75;5017810;28;20045;-79
2023/05/29 11:36:20;;;;;;;4.55;2.28;;;;;;;22.04;25.83;101869.56;5034560;28;20076;-80
2023/05/29 11:38:48;;;;;;;6.35;2.15;;;;;;;22.04;25.63;101880.69;5032422;28;20047;-81
2023/05/29 11:41:18;;;;;;;5.60;2.33;;;;;;;22.09;25.52;101869.88;5014595;28;20069;-82